Time;durP1;ratioP1;P1;durP2;ratioP2;P2;SDS_P1;SDS_P2;PMS_P1;PMS_P2;Temp;Humidity;BMP_temperature;BMP_pressure;BME280_temperature;BME280_humidity;BME280_pressure;Samples;Min_cycle;Max_cycle;Signal;HPM_P1;HPM_P2
2022/10/14 00:02:22;;;;;;;7.15;3.85;;;;;;;10.71;81.06;100179.59;5070246;28;20064;-73
2022/10/14 00:04:47;;;;;;;11.93;4.82;;;;;;;10.73;81.04;100171.94;5059298;28;20025;-73
2022/10/14 00:07:13;;;;;;;11.13;4.35;;;;;;;10.77;81.35;100173.84;5043361;28;20033;-72
2022/10/14 00:09:40;;;;;;;10.55;4.13;;;;;;;10.80;81.92;100175.22;5075752;28;20040;-72
2022/10/14 00:12:06;;;;;;;9.38;4.95;;;;;;;10.83;82.21;100177.41;5081788;28;20482;-74
2022/10/14 00:14:31;;;;;;;12.32;4.78;;;;;;;10.87;81.86;100170.28;5043339;28;20025;-73
2022/10/14 00:16:57;;;;;;;11.80;4.75;;;;;;;10.90;82.24;100171.66;5076526;28;20100;-71
2022/10/14 00:19:22;;;;;;;9.02;4.80;;;;;;;10.85;82.45;100164.28;5060347;28;20063;-72
2022/10/14 00:21:48;;;;;;;11.23;5.13;;;;;;;10.80;82.12;100177.94;5059331;28;20036;-71
2022/10/14 00:24:15;;;;;;;11.65;4.80;;;;;;;10.77;82.08;100173.84;5043437;28;20031;-72
2022/10/14 00:26:41;;;;;;;16.67;6.00;;;;;;;10.72;82.92;100175.75;5077924;28;20035;-72
2022/10/14 00:29:10;;;;;;;13.52;5.47;;;;;;;10.69;82.53;100170.84;5074314;28;20052;-72
2022/10/14 00:31:37;;;;;;;12.13;5.75;;;;;;;10.65;82.79;100160.44;5047532;28;20078;-72
2022/10/14 00:34:02;;;;;;;10.43;5.68;;;;;;;10.63;82.60;100168.09;5063925;28;20032;-72
2022/10/14 00:36:28;;;;;;;9.48;5.82;;;;;;;10.63;82.94;100168.09;5077793;28;20116;-71
2022/10/14 00:38:54;;;;;;;12.70;5.63;;;;;;;10.61;82.93;100156.59;5060956;28;20115;-71
2022/10/14 00:41:24;;;;;;;10.70;4.93;;;;;;;10.65;82.61;100154.16;5095341;28;20055;-71
2022/10/14 00:43:53;;;;;;;11.07;5.30;;;;;;;10.67;82.91;100146.50;5058092;28;20096;-72
2022/10/14 00:46:18;;;;;;;7.80;4.85;;;;;;;10.67;82.91;100142.94;5077489;28;20028;-72
2022/10/14 00:48:44;;;;;;;6.72;4.50;;;;;;;10.67;83.03;100143.75;5076779;28;20500;-72
2022/10/14 00:51:09;;;;;;;15.50;5.47;;;;;;;10.69;83.05;100143.50;5080504;28;20047;-72
2022/10/14 00:53:36;;;;;;;9.90;5.35;;;;;;;10.69;83.56;100143.50;5060007;28;20440;-73
2022/10/14 00:56:03;;;;;;;23.63;6.35;;;;;;;10.68;83.84;100147.34;5080434;28;20028;-71
2022/10/14 00:58:29;;;;;;;11.82;5.40;;;;;;;10.66;83.87;100150.34;5041457;28;20382;-72
2022/10/14 01:00:54;;;;;;;11.98;5.22;;;;;;;10.68;83.72;100147.34;5068126;28;20508;-72
2022/10/14 01:03:22;;;;;;;11.40;5.38;;;;;;;10.67;84.27;100137.47;5078368;28;20036;-72
2022/10/14 01:06:24;;;;;;;11.20;4.97;;;;;;;10.65;84.01;100138.56;5067778;28;20016;-70
2022/10/14 01:09:01;;;;;;;13.40;5.65;;;;;;;10.60;84.05;100124.06;5028310;28;20036;-73
2022/10/14 01:11:45;;;;;;;8.95;5.22;;;;;;;10.64;84.05;100131.47;5070122;28;20024;-72
2022/10/14 01:14:35;;;;;;;10.38;5.75;;;;;;;10.63;84.43;100132.56;5056283;28;20037;-73
2022/10/14 01:17:14;;;;;;;7.65;4.95;;;;;;;10.65;84.42;100138.56;5059986;28;20115;-72
2022/10/14 01:20:05;;;;;;;12.45;6.25;;;;;;;10.65;84.96;100127.63;5062023;28;20117;-72
2022/10/14 01:22:52;;;;;;;14.85;5.97;;;;;;;10.64;84.76;100115.06;5052982;28;20426;-72
2022/10/14 01:25:35;;;;;;;10.07;5.13;;;;;;;10.65;84.38;100122.16;5056646;28;20036;-73
2022/10/14 01:28:23;;;;;;;8.95;5.00;;;;;;;10.64;85.21;100126.00;5082557;28;20054;-73
2022/10/14 01:30:59;;;;;;;12.13;5.53;;;;;;;10.61;84.62;100125.72;5064171;28;20036;-72
2022/10/14 01:33:31;;;;;;;7.88;4.57;;;;;;;10.65;84.68;100130.38;5055200;28;20033;-73
2022/10/14 01:36:14;;;;;;;7.40;4.40;;;;;;;10.67;84.37;100124.63;5074295;28;20025;-73
2022/10/14 01:38:53;;;;;;;6.15;4.03;;;;;;;10.71;84.09;100127.63;5069099;28;20032;-73
2022/10/14 01:41:27;;;;;;;6.18;4.00;;;;;;;10.70;84.25;100113.13;5044212;28;20474;-73
2022/10/14 01:43:56;;;;;;;7.35;4.43;;;;;;;10.70;84.09;100113.13;5059138;28;20128;-73
2022/10/14 01:46:25;;;;;;;6.22;3.67;;;;;;;10.77;83.77;100123.81;5090397;28;20548;-72
2022/10/14 01:48:56;;;;;;;9.95;4.45;;;;;;;10.79;83.60;100110.66;5059490;28;20032;-73
2022/10/14 01:51:35;;;;;;;10.43;4.10;;;;;;;10.81;83.96;100113.97;5056832;28;20029;-72
2022/10/14 01:54:08;;;;;;;11.77;4.85;;;;;;;10.82;83.60;100115.59;5058651;28;20020;-71
2022/10/14 01:56:37;;;;;;;8.95;5.30;;;;;;;10.80;83.41;100120.50;5075452;28;20095;-71
2022/10/14 01:59:03;;;;;;;9.43;5.38;;;;;;;10.77;84.15;100110.13;5060108;28;20040;-71
2022/10/14 02:01:29;;;;;;;6.28;4.28;;;;;;;10.79;84.09;100106.03;5062007;28;20040;-71
2022/10/14 02:03:54;;;;;;;7.28;4.55;;;;;;;10.82;84.00;100104.66;5068219;28;20684;-72
2022/10/14 02:06:23;;;;;;;6.75;3.85;;;;;;;10.81;83.40;100086.59;5053982;28;20033;-72
2022/10/14 02:09:01;;;;;;;6.72;3.75;;;;;;;10.77;83.63;100085.50;5057645;28;20462;-71
2022/10/14 02:11:34;;;;;;;9.07;3.97;;;;;;;10.75;83.75;100076.78;5071871;28;20330;-72
2022/10/14 02:14:34;;;;;;;8.43;4.60;;;;;;;10.76;84.10;100072.91;5077886;28;20040;-72
2022/10/14 02:17:42;;;;;;;10.43;5.40;;;;;;;10.77;84.26;100069.09;5057837;28;20039;-71
2022/10/14 02:20:32;;;;;;;11.85;5.57;;;;;;;10.77;83.86;100069.91;5058918;28;20029;-72
2022/10/14 02:23:22;;;;;;;11.73;5.53;;;;;;;10.73;84.34;100054.34;5090649;28;20031;-71
2022/10/14 02:25:49;;;;;;;9.75;5.35;;;;;;;10.63;84.94;100036.84;5057146;28;20104;-71
2022/10/14 02:28:25;;;;;;;8.32;4.80;;;;;;;10.60;85.05;100037.41;5088124;28;20036;-70
2022/10/14 02:31:06;;;;;;;5.78;3.63;;;;;;;10.50;84.79;100021.03;5060728;28;20440;-71
2022/10/14 02:33:58;;;;;;;;;;;;;;;;;;;;;
2022/10/14 02:36:44;;;;;;;7.00;3.78;;;;;;;10.64;84.79;100037.66;5096470;28;20055;-69
2022/10/14 02:39:27;;;;;;;8.02;4.30;;;;;;;10.67;84.34;100045.31;5060705;28;20036;-71
2022/10/14 02:41:56;;;;;;;5.40;3.33;;;;;;;10.67;84.32;100041.78;5063661;28;20036;-70
2022/10/14 02:44:33;;;;;;;6.45;3.17;;;;;;;10.76;83.93;100051.03;5059679;28;20111;-72
2022/10/14 02:47:01;;;;;;;4.22;3.15;;;;;;;10.81;83.82;100048.31;5059638;28;20067;-71
2022/10/14 02:49:27;;;;;;;6.38;3.00;;;;;;;10.82;83.66;100033.56;5052868;28;20446;-70
2022/10/14 02:51:53;;;;;;;4.68;2.97;;;;;;;10.76;83.60;100018.22;5068596;28;20037;-71
2022/10/14 02:54:19;;;;;;;4.80;2.70;;;;;;;10.78;83.79;100021.53;5061005;28;20028;-71
2022/10/14 02:56:44;;;;;;;4.50;2.72;;;;;;;10.85;83.55;100033.00;5079912;28;20461;-71
2022/10/14 02:59:12;;;;;;;4.30;2.72;;;;;;;10.83;83.55;100021.50;5066660;28;20035;-70
2022/10/14 03:01:38;;;;;;;3.45;2.10;;;;;;;10.95;83.23;100027.50;5064464;28;20027;-70
2022/10/14 03:04:03;;;;;;;3.65;2.22;;;;;;;10.98;82.58;100026.94;5056211;28;20543;-72
2022/10/14 03:06:29;;;;;;;4.03;2.28;;;;;;;10.97;82.49;100008.88;5065740;28;20037;-71
2022/10/14 03:08:54;;;;;;;3.00;1.90;;;;;;;11.03;82.99;100006.94;5069162;28;20039;-69
2022/10/14 03:11:20;;;;;;;2.55;1.90;;;;;;;11.08;83.13;100008.84;5066266;28;20032;-69
2022/10/14 03:13:45;;;;;;;3.15;1.70;;;;;;;11.07;82.94;100001.72;5052280;28;20033;-67
2022/10/14 03:16:10;;;;;;;3.10;2.33;;;;;;;11.04;82.84;100000.38;5045713;28;20037;-71
2022/10/14 03:18:36;;;;;;;4.70;2.40;;;;;;;11.02;82.75;99999.00;5061820;28;20067;-71
2022/10/14 03:21:01;;;;;;;3.58;2.13;;;;;;;11.03;83.26;100011.59;5058694;28;20478;-71
2022/10/14 03:23:27;;;;;;;3.72;2.20;;;;;;;11.00;82.92;100002.84;5075004;28;20043;-70
2022/10/14 03:25:52;;;;;;;3.80;2.20;;;;;;;11.00;82.88;100000.09;5079909;28;20040;-70
2022/10/14 03:28:17;;;;;;;2.85;1.88;;;;;;;11.02;82.81;99988.06;5056633;28;20033;-71
2022/10/14 03:30:43;;;;;;;3.40;1.77;;;;;;;11.00;82.75;99986.41;5075823;28;20024;-69
2022/10/14 03:33:08;;;;;;;2.10;1.90;;;;;;;11.03;82.77;99985.06;5028317;28;20040;-70
2022/10/14 03:35:34;;;;;;;3.83;1.83;;;;;;;11.07;82.73;99990.75;5057513;28;20113;-69
2022/10/14 03:38:02;;;;;;;3.28;1.75;;;;;;;11.10;82.74;99990.22;5057874;28;20036;-69
2022/10/14 03:40:27;;;;;;;2.20;1.60;;;;;;;11.11;82.43;99980.91;5065878;28;20096;-70
2022/10/14 03:43:05;;;;;;;1.80;1.50;;;;;;;11.10;82.84;99973.81;5036808;28;20113;-70
2022/10/14 03:45:31;;;;;;;1.45;1.25;;;;;;;11.16;82.66;99983.63;5060330;28;20043;-70
2022/10/14 03:47:56;;;;;;;1.40;1.23;;;;;;;11.14;82.55;99972.13;5059437;28;20029;-70
2022/10/14 03:50:22;;;;;;;2.38;1.42;;;;;;;11.13;81.99;99965.84;5067362;28;20040;-70
2022/10/14 03:52:47;;;;;;;2.63;1.85;;;;;;;11.14;82.23;99962.03;5074515;28;20039;-70
2022/10/14 03:55:13;;;;;;;2.33;1.77;;;;;;;11.15;82.33;99960.09;5047710;28;20056;-70
2022/10/14 03:57:38;;;;;;;3.60;2.10;;;;;;;11.15;81.93;99962.81;5070726;28;20031;-70
2022/10/14 04:00:05;;;;;;;4.63;2.15;;;;;;;11.09;82.65;99961.22;5056296;28;20143;-70
2022/10/14 04:02:30;;;;;;;3.38;1.85;;;;;;;11.07;82.17;99957.94;5086151;28;20394;-69
2022/10/14 04:04:55;;;;;;;2.45;1.55;;;;;;;11.15;83.01;99965.56;5055745;28;20054;-71
2022/10/14 04:07:21;;;;;;;3.97;1.75;;;;;;;11.16;82.75;99956.25;5042851;28;20028;-70
2022/10/14 04:09:46;;;;;;;4.80;2.17;;;;;;;11.20;83.08;99960.09;5074155;28;20105;-70
2022/10/14 04:12:12;;;;;;;2.17;1.58;;;;;;;11.21;82.52;99952.69;5087883;28;20020;-70
2022/10/14 04:14:37;;;;;;;2.03;1.60;;;;;;;11.24;82.67;99946.63;5060385;28;20052;-70
2022/10/14 04:17:03;;;;;;;3.60;1.63;;;;;;;11.26;82.62;99942.53;5070457;28;20410;-71
2022/10/14 04:19:32;;;;;;;1.58;1.30;;;;;;;11.25;82.68;99929.94;5080202;28;20084;-71
2022/10/14 04:21:57;;;;;;;4.57;2.13;;;;;;;11.28;82.77;99929.38;5058933;28;20040;-71
2022/10/14 04:24:23;;;;;;;3.15;2.50;;;;;;;11.27;82.20;99922.28;5059544;28;20033;-74
2022/10/14 04:26:50;;;;;;;5.00;2.22;;;;;;;11.25;82.65;99927.19;5059900;28;20036;-71
2022/10/14 04:29:16;;;;;;;2.70;2.00;;;;;;;11.27;82.65;99922.28;5081445;28;20683;-71
2022/10/14 04:31:42;;;;;;;3.58;2.20;;;;;;;11.25;83.02;99918.97;5058620;28;20036;-71
2022/10/14 04:34:09;;;;;;;2.90;2.25;;;;;;;11.26;82.85;99915.16;5038936;28;20029;-71
2022/10/14 04:36:34;;;;;;;3.15;2.40;;;;;;;11.25;82.75;99913.50;5062358;28;20037;-70
2022/10/14 04:39:00;;;;;;;4.75;2.05;;;;;;;11.25;82.64;99902.56;5069816;28;20040;-70
2022/10/14 04:41:26;;;;;;;4.47;2.03;;;;;;;11.30;82.98;99912.66;5070504;28;20036;-69
2022/10/14 04:43:51;;;;;;;2.63;1.63;;;;;;;11.30;83.13;99905.28;5041716;28;20031;-69
2022/10/14 04:46:17;;;;;;;1.65;1.50;;;;;;;11.31;82.56;99909.63;5058020;28;20029;-71
2022/10/14 04:48:42;;;;;;;4.63;2.33;;;;;;;11.35;82.45;99912.63;5039196;28;20040;-69
2022/10/14 04:51:08;;;;;;;2.40;1.60;;;;;;;11.38;82.96;99914.00;5067145;28;20009;-71
2022/10/14 04:53:33;;;;;;;2.35;1.67;;;;;;;11.38;82.50;99908.53;5071688;28;20040;-71
2022/10/14 04:55:59;;;;;;;2.05;1.52;;;;;;;11.40;82.29;99903.56;5071477;28;20041;-71
2022/10/14 04:58:24;;;;;;;1.20;1.10;;;;;;;11.40;82.38;99914.53;5046457;28;20406;-72
2022/10/14 05:00:53;;;;;;;3.03;1.70;;;;;;;11.39;82.32;99910.97;5058381;28;20068;-72
2022/10/14 05:03:18;;;;;;;1.48;1.35;;;;;;;11.43;82.05;99906.53;5053284;28;20040;-69
2022/10/14 05:05:44;;;;;;;2.13;1.33;;;;;;;11.42;82.42;99882.19;5025102;28;20048;-71
2022/10/14 05:08:09;;;;;;;1.85;1.20;;;;;;;11.48;82.08;99889.28;5053513;28;20132;-72
2022/10/14 05:10:34;;;;;;;1.65;1.52;;;;;;;11.48;82.52;99897.50;5065792;28;20033;-71
2022/10/14 05:13:00;;;;;;;2.25;1.85;;;;;;;11.49;82.46;99893.63;5037095;28;20028;-71
2022/10/14 05:15:26;;;;;;;2.80;1.85;;;;;;;11.46;82.25;99891.47;5050719;28;20067;-71
2022/10/14 05:17:51;;;;;;;2.17;1.83;;;;;;;11.47;81.93;99893.94;5064821;28;20142;-71
2022/10/14 05:20:17;;;;;;;2.78;1.58;;;;;;;11.45;81.85;99900.81;5049090;28;20021;-72
2022/10/14 05:22:45;;;;;;;3.38;2.03;;;;;;;11.44;82.06;99890.94;5066842;28;20474;-71
2022/10/14 05:25:11;;;;;;;2.20;1.52;;;;;;;11.41;82.09;99872.34;5058200;28;20028;-70
2022/10/14 05:27:38;;;;;;;2.60;1.80;;;;;;;11.46;82.32;99872.31;5059522;28;20029;-71
2022/10/14 05:30:03;;;;;;;2.97;1.80;;;;;;;11.47;81.98;99871.22;5063668;28;20141;-72
2022/10/14 05:32:31;;;;;;;2.00;1.60;;;;;;;11.50;81.97;99876.13;5070176;28;20512;-71
2022/10/14 05:34:56;;;;;;;2.42;1.60;;;;;;;11.53;82.18;99872.81;5051659;28;20037;-70
2022/10/14 05:37:22;;;;;;;2.33;1.33;;;;;;;11.62;81.86;99876.59;5055109;28;20509;-71
2022/10/14 05:39:47;;;;;;;3.53;1.60;;;;;;;11.64;81.66;99879.03;5048495;28;20051;-71
2022/10/14 05:42:13;;;;;;;4.13;1.88;;;;;;;11.64;81.46;99860.66;5044159;28;20020;-71
2022/10/14 05:44:38;;;;;;;5.00;1.70;;;;;;;11.68;81.42;99869.13;5055310;28;20017;-71
2022/10/14 05:47:04;;;;;;;3.92;1.80;;;;;;;11.72;81.01;99869.38;5059244;28;20036;-72
2022/10/14 05:49:29;;;;;;;3.55;2.03;;;;;;;11.76;81.32;99864.97;5072899;28;20035;-71
2022/10/14 05:51:54;;;;;;;2.40;1.85;;;;;;;11.78;80.95;99857.25;5051333;28;20060;-71
2022/10/14 05:54:20;;;;;;;2.80;2.00;;;;;;;11.81;80.94;99879.44;5077613;28;20033;-71
2022/10/14 05:56:49;;;;;;;2.67;1.88;;;;;;;11.78;81.49;99868.22;5064116;28;20024;-73
2022/10/14 05:59:14;;;;;;;3.35;1.90;;;;;;;11.88;81.20;99868.97;5048095;28;20402;-71
2022/10/14 06:01:40;;;;;;;3.72;2.20;;;;;;;11.90;81.26;99854.13;5068451;28;20036;-71
2022/10/14 06:04:05;;;;;;;3.38;2.38;;;;;;;11.92;80.67;99855.50;5067865;28;20029;-71
2022/10/14 06:06:31;;;;;;;3.22;2.30;;;;;;;11.92;81.08;99850.00;5066558;28;20029;-71
2022/10/14 06:09:00;;;;;;;2.50;2.03;;;;;;;11.97;81.63;99860.97;5070142;28;20024;-70
2022/10/14 06:11:25;;;;;;;3.75;2.35;;;;;;;11.93;81.41;99846.19;5041273;28;20044;-68
2022/10/14 06:13:52;;;;;;;1.70;1.60;;;;;;;12.00;81.21;99857.63;5072994;28;20016;-71
2022/10/14 06:16:17;;;;;;;3.30;2.10;;;;;;;11.95;81.63;99846.72;5055086;28;20033;-68
2022/10/14 06:18:42;;;;;;;2.63;2.22;;;;;;;12.01;81.03;99856.50;5035247;28;20024;-69
2022/10/14 06:21:11;;;;;;;3.70;2.25;;;;;;;12.02;80.78;99847.19;5063400;28;20024;-69
2022/10/14 06:23:36;;;;;;;2.50;1.80;;;;;;;12.05;81.30;99843.88;5063299;28;20052;-68
2022/10/14 06:26:20;;;;;;;2.83;1.83;;;;;;;11.97;80.85;99832.72;5056307;28;20427;-71
2022/10/14 06:28:46;;;;;;;2.03;1.50;;;;;;;12.03;81.41;99848.00;5044697;28;20759;-74
2022/10/14 06:31:12;;;;;;;2.83;1.58;;;;;;;12.02;81.44;99847.19;5059423;28;20074;-74
2022/10/14 06:33:37;;;;;;;1.73;1.45;;;;;;;12.07;81.07;99853.72;5058665;28;20389;-73
2022/10/14 06:36:04;;;;;;;1.83;1.08;;;;;;;12.03;81.30;99837.88;5049259;28;20033;-74
2022/10/14 06:38:32;;;;;;;1.88;1.15;;;;;;;12.07;81.11;99837.28;5074615;28;20104;-74
2022/10/14 06:41:00;;;;;;;1.35;1.02;;;;;;;12.04;81.62;99834.00;5081599;28;20024;-74
2022/10/14 06:43:26;;;;;;;1.50;1.20;;;;;;;12.13;81.53;99845.16;5078190;28;20064;-73
2022/10/14 06:46:03;;;;;;;2.35;1.08;;;;;;;12.09;82.12;99840.53;5066900;28;20035;-73
2022/10/14 06:48:40;;;;;;;1.08;0.95;;;;;;;12.10;81.34;99843.00;5060200;28;20056;-73
2022/10/14 06:51:20;;;;;;;2.47;0.90;;;;;;;12.12;81.42;99834.47;5055704;28;20032;-73
2022/10/14 06:54:06;;;;;;;1.48;0.77;;;;;;;12.21;81.37;99839.03;5059509;28;20028;-75
2022/10/14 06:56:35;;;;;;;0.85;0.77;;;;;;;12.27;81.26;99831.59;5056033;28;20067;-72
2022/10/14 07:02:22;;;;;;;1.88;1.65;;;;;;;12.35;81.09;99817.25;5067919;28;20139;-74
2022/10/14 07:05:01;;;;;;;2.85;2.35;;;;;;;12.44;81.01;99820.16;5089201;28;20037;-75
2022/10/14 07:07:26;;;;;;;2.47;2.20;;;;;;;12.58;80.43;99822.97;5063506;28;20032;-73
2022/10/14 07:09:59;;;;;;;3.97;1.85;;;;;;;12.76;79.92;99824.09;5066258;28;20067;-75
2022/10/14 07:12:25;;;;;;;2.28;1.80;;;;;;;13.01;80.05;99849.56;5061067;28;20043;-73
2022/10/14 07:14:51;;;;;;;1.67;1.58;;;;;;;13.12;79.21;99853.00;5058874;28;20016;-74
2022/10/14 07:17:22;;;;;;;2.00;1.35;;;;;;;13.21;79.41;99862.97;5064216;28;20020;-75
2022/10/14 07:19:47;;;;;;;1.63;1.30;;;;;;;13.25;78.61;99857.72;5057154;28;20028;-75
2022/10/14 07:22:16;;;;;;;1.35;1.00;;;;;;;13.30;79.04;99852.13;5045064;28;20044;-75
2022/10/14 07:24:47;;;;;;;1.92;1.45;;;;;;;13.32;79.07;99855.44;5058524;28;20032;-73
2022/10/14 07:27:14;;;;;;;3.00;1.63;;;;;;;13.41;78.71;99872.88;5062686;28;20017;-72
2022/10/14 07:29:45;;;;;;;2.17;1.33;;;;;;;13.33;78.85;99862.56;5075043;28;20543;-72
2022/10/14 07:32:13;;;;;;;1.73;1.38;;;;;;;13.27;78.73;99850.84;5053948;28;20511;-71
2022/10/14 07:34:41;;;;;;;2.72;1.60;;;;;;;13.34;79.27;99858.72;5055807;28;20047;-72
2022/10/14 07:37:09;;;;;;;5.00;1.95;;;;;;;13.47;78.44;99868.13;5024640;28;20020;-72
2022/10/14 07:39:58;;;;;;;3.95;2.17;;;;;;;13.54;78.54;99863.06;5061287;28;20044;-72
2022/10/14 07:43:04;;;;;;;3.25;2.13;;;;;;;13.58;78.37;99866.84;5074840;28;20072;-72
2022/10/14 07:45:45;;;;;;;3.83;2.20;;;;;;;13.51;78.69;99868.34;5071155;28;20119;-72
2022/10/14 07:48:14;;;;;;;2.92;1.70;;;;;;;13.37;79.46;99858.09;5048763;28;20028;-73
2022/10/14 07:50:49;;;;;;;2.50;1.73;;;;;;;13.35;78.99;99860.34;5053995;28;20057;-71
2022/10/14 07:53:24;;;;;;;9.25;4.40;;;;;;;13.31;79.99;99853.78;5045530;28;20478;-73
2022/10/14 07:55:58;;;;;;;8.15;4.22;;;;;;;13.43;80.86;99867.91;5044983;28;20082;-74
2022/10/14 07:58:48;;;;;;;7.03;3.97;;;;;;;13.44;81.53;99866.78;5081906;28;20028;-73
2022/10/14 08:01:15;;;;;;;5.80;3.75;;;;;;;13.46;81.01;99843.72;5060681;28;20692;-74
2022/10/14 08:03:42;;;;;;;5.63;4.10;;;;;;;13.61;81.01;99855.25;5074236;28;20033;-72
2022/10/14 08:06:39;;;;;;;10.70;4.40;;;;;;;13.82;80.95;99848.59;5057815;28;20033;-71
2022/10/14 08:09:40;;;;;;;4.70;2.70;;;;;;;13.98;80.16;99836.22;5021767;28;20045;-70
2022/10/14 08:12:59;;;;;;;;;;;;;;;;;;;;;
2022/10/14 08:16:00;;;;;;;4.47;3.08;;;;;;;14.18;79.73;99837.78;5047268;28;20108;-70
2022/10/14 08:18:58;;;;;;;;;;;;;;;;;;;;;
2022/10/14 08:21:59;;;;;;;;;;;;;;;;;;;;;
2022/10/14 08:24:39;;;;;;;5.47;2.75;;;;;;;14.57;79.08;99838.38;5055768;28;20081;-71
2022/10/14 08:27:15;;;;;;;5.47;3.65;;;;;;;14.81;78.18;99865.69;5053348;28;20067;-70
2022/10/14 08:29:43;;;;;;;7.13;2.97;;;;;;;14.96;78.07;99856.28;5052462;28;20037;-72
2022/10/14 08:33:13;;;;;;;;;;;;;;;;;;;;;
2022/10/14 08:35:57;;;;;;;6.13;2.58;;;;;;;15.21;77.02;99867.84;5054601;28;20085;-71
2022/10/14 08:38:28;;;;;;;6.40;3.10;;;;;;;15.21;76.63;99873.34;5062605;28;20029;-70
2022/10/14 08:41:22;;;;;;;5.10;2.63;;;;;;;15.18;77.04;99872.84;5071610;28;20036;-69
2022/10/14 08:44:11;;;;;;;5.70;2.67;;;;;;;15.16;77.03;99882.56;5050809;28;20045;-72
2022/10/14 08:47:07;;;;;;;3.08;2.10;;;;;;;15.16;77.35;99863.28;5064911;28;20490;-71
2022/10/14 08:50:00;;;;;;;3.13;1.75;;;;;;;15.18;76.75;99855.50;5051093;28;20100;-71
2022/10/14 08:52:43;;;;;;;2.67;1.90;;;;;;;15.22;76.98;99837.25;5051862;28;20093;-71
2022/10/14 08:55:51;;;;;;;2.28;1.63;;;;;;;15.27;76.96;99839.06;5052058;28;20025;-71
2022/10/14 08:58:48;;;;;;;;;;;;;;;;;;;;;
2022/10/14 09:02:29;;;;;;;;;;;;;;;;;;;;;
2022/10/14 09:05:44;;;;;;;3.55;1.10;;;;;;;15.95;75.44;99841.81;5005872;28;20100;-71
2022/10/14 09:08:29;;;;;;;4.55;1.80;;;;;;;16.09;74.91;99845.31;5019616;28;20025;-70
2022/10/14 09:11:06;;;;;;;2.63;1.73;;;;;;;16.37;74.20;99850.59;5042079;28;20107;-71
2022/10/14 09:13:55;;;;;;;1.92;1.38;;;;;;;16.42;73.66;99852.41;5067048;28;20024;-70
2022/10/14 09:16:54;;;;;;;3.30;2.10;;;;;;;16.20;73.48;99841.13;5066467;28;20663;-71
2022/10/14 09:20:18;;;;;;;3.65;1.15;;;;;;;16.23;74.05;99854.25;5054770;28;20028;-70
2022/10/14 09:23:24;;;;;;;2.15;1.20;;;;;;;16.13;73.54;99831.69;4984041;28;20046;-71
2022/10/14 09:26:31;;;;;;;1.95;1.40;;;;;;;16.03;73.79;99824.47;5038704;28;20108;-72
2022/10/14 09:43:11;;;;;;;2.17;1.33;;;;;;;16.87;72.12;99817.13;5071750;28;20505;-69
2022/10/14 09:49:59;;;;;;;;;;;;;;;;;;;;;
2022/10/14 09:53:16;;;;;;;6.05;1.83;;;;;;;17.16;69.85;99812.94;4959413;28;20058;-71
2022/10/14 09:59:02;;;;;;;;;;;;;;;;;;;;;
2022/10/14 10:01:47;;;;;;;4.70;1.70;;;;;;;17.31;68.62;99803.34;5030572;28;20121;-71
2022/10/14 10:04:31;;;;;;;7.32;2.33;;;;;;;16.99;69.58;99823.97;5018983;28;20116;-73
2022/10/14 10:07:26;;;;;;;;;;;;;;;;;;;;;
2022/10/14 10:10:01;;;;;;;3.40;1.90;;;;;;;16.45;71.87;99827.72;5034177;28;20108;-71
2022/10/14 10:12:35;;;;;;;3.05;2.03;;;;;;;16.28;72.96;99824.91;5017748;28;20052;-71
2022/10/14 10:15:32;;;;;;;2.65;1.88;;;;;;;15.97;73.84;99817.50;5020945;28;20035;-71
2022/10/14 10:18:34;;;;;;;9.73;2.20;;;;;;;15.79;74.45;99822.09;5066447;28;20039;-71
2022/10/14 10:21:40;;;;;;;4.95;1.70;;;;;;;15.71;75.79;99823.63;5042058;28;20032;-71
2022/10/14 10:31:53;;;;;;;;;;;;;;;;;;;;;
2022/10/14 10:34:49;;;;;;;7.25;2.13;;;;;;;15.48;76.00;99811.84;5015162;28;20098;-72
2022/10/14 10:40:23;;;;;;;3.22;2.17;;;;;;;15.27;77.78;99808.75;5003197;28;20511;-70
2022/10/14 10:46:35;;;;;;;2.45;1.58;;;;;;;15.07;77.80;99801.78;4991370;28;20034;-71
2022/10/14 10:49:47;;;;;;;;;;;;;;;;;;;;;
2022/10/14 10:52:55;;;;;;;6.90;2.10;;;;;;;14.99;79.08;99800.59;4998561;28;20098;-72
2022/10/14 10:56:03;;;;;;;4.55;1.80;;;;;;;14.85;79.73;99784.13;5054219;28;20139;-71
2022/10/14 10:59:08;;;;;;;7.97;2.20;;;;;;;14.99;79.89;99800.59;5053031;28;20045;-73
2022/10/14 11:01:48;;;;;;;5.97;2.28;;;;;;;14.97;79.79;99794.59;5068523;28;20047;-72
2022/10/14 11:04:17;;;;;;;8.10;1.88;;;;;;;14.95;79.94;99794.06;5068537;28;20111;-71
2022/10/14 11:12:56;;;;;;;3.83;2.08;;;;;;;14.42;83.39;99799.03;5075757;28;20036;-72
2022/10/14 11:15:46;;;;;;;3.38;2.00;;;;;;;14.47;83.74;99809.13;5084342;28;20028;-74
2022/10/14 11:18:55;;;;;;;5.00;1.73;;;;;;;14.26;84.48;99784.00;5051147;28;20024;-71
2022/10/14 11:21:52;;;;;;;5.32;2.25;;;;;;;14.18;86.12;99791.03;5065525;28;20055;-72
2022/10/14 11:24:38;;;;;;;5.05;1.85;;;;;;;14.23;87.78;99795.59;5063325;28;20033;-72
2022/10/14 11:27:22;;;;;;;4.63;2.47;;;;;;;14.35;88.22;99770.34;5071013;28;20092;-71
2022/10/14 11:30:12;;;;;;;;;;;;;;;;;;;;;
2022/10/14 11:33:16;;;;;;;5.97;3.63;;;;;;;14.45;88.04;99775.63;5077503;28;20105;-73
2022/10/14 11:36:48;;;;;;;;;;;;;;;;;;;;;
2022/10/14 11:39:52;;;;;;;4.72;2.90;;;;;;;14.66;88.31;99765.03;5006924;28;20199;-71
2022/10/14 11:43:02;;;;;;;;;;;;;;;;;;;;;
2022/10/14 11:45:50;;;;;;;6.05;3.25;;;;;;;14.88;87.00;99774.44;5080251;28;20111;-71
2022/10/14 11:48:28;;;;;;;5.68;3.20;;;;;;;15.08;86.34;99778.66;5057785;28;20041;-71
2022/10/14 11:54:10;;;;;;;4.63;2.90;;;;;;;15.61;82.75;99755.00;5062267;28;20029;-71
2022/10/14 11:57:02;;;;;;;3.55;2.10;;;;;;;15.95;82.14;99770.94;5066336;28;20104;-73
2022/10/14 11:59:42;;;;;;;6.00;2.65;;;;;;;16.18;80.46;99757.88;5056526;28;20020;-71
2022/10/14 12:02:27;;;;;;;3.95;2.53;;;;;;;16.31;79.81;99766.34;5077775;28;20039;-70
2022/10/14 12:05:22;;;;;;;5.85;2.00;;;;;;;16.14;79.82;99756.88;5083841;28;20453;-72
2022/10/14 12:08:26;;;;;;;4.38;2.20;;;;;;;15.95;79.98;99764.63;5054666;28;20039;-69
2022/10/14 12:10:58;;;;;;;2.97;1.73;;;;;;;15.98;80.97;99752.94;5053349;28;20037;-72
2022/10/14 12:14:24;;;;;;;2.45;1.58;;;;;;;16.17;79.86;99752.69;5043528;28;20261;-72
2022/10/14 12:16:50;;;;;;;3.63;1.45;;;;;;;16.19;78.67;99742.97;5063253;28;20037;-71
2022/10/14 12:19:39;;;;;;;3.47;1.48;;;;;;;16.16;78.54;99738.06;5060525;28;20152;-71
2022/10/14 12:22:26;;;;;;;2.45;1.20;;;;;;;15.94;78.55;99741.72;5061099;28;20037;-71
2022/10/14 12:24:56;;;;;;;1.23;1.00;;;;;;;15.65;80.00;99742.22;5050012;28;20077;-70
2022/10/14 12:27:24;;;;;;;0.20;0.20;;;;;;;15.30;81.03;99742.03;5070684;28;20032;-71
2022/10/14 12:29:51;;;;;;;0.10;0.10;;;;;;;15.03;82.93;99740.25;5060776;28;20052;-72
2022/10/14 12:32:22;;;;;;;0.50;0.30;;;;;;;15.09;84.43;99750.00;5067653;28;20073;-72
2022/10/14 12:34:52;;;;;;;0.20;0.20;;;;;;;15.06;84.25;99745.91;5064760;28;20028;-73
2022/10/14 12:37:24;;;;;;;0.35;0.30;;;;;;;14.95;84.45;99741.78;5042788;28;20060;-72
2022/10/14 12:40:02;;;;;;;0.15;0.10;;;;;;;14.98;84.69;99744.72;5055131;28;20036;-72
2022/10/14 12:42:29;;;;;;;0.30;0.20;;;;;;;15.13;84.34;99738.03;5054608;28;20033;-71
2022/10/14 12:45:00;;;;;;;0.20;0.20;;;;;;;15.28;83.93;99733.28;5057224;28;20036;-72
2022/10/14 12:47:35;;;;;;;0.20;0.20;;;;;;;15.32;83.23;99731.53;5063086;28;20043;-72
2022/10/14 12:50:30;;;;;;;0.20;0.20;;;;;;;15.33;83.44;99733.13;5038511;28;20052;-71
2022/10/14 12:53:05;;;;;;;0.10;0.10;;;;;;;15.31;83.12;99729.88;5065680;28;20033;-71
2022/10/14 12:55:38;;;;;;;0.20;0.20;;;;;;;15.18;83.20;99726.88;5064904;28;20349;-71
2022/10/14 12:58:06;;;;;;;0.20;0.20;;;;;;;15.13;83.63;99724.25;5074831;28;20038;-71
2022/10/14 13:00:39;;;;;;;0.30;0.22;;;;;;;15.10;83.20;99722.16;5067233;28;20131;-72
2022/10/14 13:03:28;;;;;;;;;;;;;;;;;;;;;
2022/10/14 13:06:31;;;;;;;0.63;0.28;;;;;;;14.97;84.24;99703.75;5062743;28;20103;-72
2022/10/14 13:09:14;;;;;;;0.30;0.30;;;;;;;15.29;83.28;99710.91;5061463;28;20024;-72
2022/10/14 13:11:44;;;;;;;3.25;0.30;;;;;;;15.57;82.51;99715.44;5072734;28;20040;-73
2022/10/14 13:14:26;;;;;;;0.63;0.20;;;;;;;15.96;81.60;99711.06;5037683;28;20146;-71
2022/10/14 13:16:51;;;;;;;1.27;0.22;;;;;;;16.10;80.55;99711.78;5062919;28;20021;-72
2022/10/14 13:19:32;;;;;;;0.50;0.30;;;;;;;16.34;80.38;99700.31;5071704;28;20083;-72
2022/10/14 13:22:10;;;;;;;0.32;0.30;;;;;;;16.69;78.93;99710.53;5061640;28;20028;-73
2022/10/14 13:24:40;;;;;;;0.52;0.30;;;;;;;16.98;77.26;99706.34;5079185;28;20268;-72